createdAt,value
2018-03-25T00:01:26.675Z,2.89
2018-03-25T00:03:57.708Z,2.89
2018-03-25T00:06:28.651Z,2.90
2018-03-25T00:08:59.642Z,2.81
2018-03-25T00:11:30.590Z,2.70
2018-03-25T00:14:01.545Z,2.75
2018-03-25T00:16:32.492Z,2.80
2018-03-25T00:19:03.501Z,2.82
2018-03-25T00:21:34.426Z,2.80
2018-03-25T00:24:05.590Z,2.85
2018-03-25T00:26:36.915Z,2.83
2018-03-25T00:29:07.671Z,2.82
2018-03-25T00:31:39.206Z,2.83
2018-03-25T00:34:09.733Z,2.85
2018-03-25T00:36:40.719Z,2.83
2018-03-25T00:39:11.739Z,2.72
2018-03-25T00:41:42.686Z,2.63
2018-03-25T00:44:13.751Z,2.63
2018-03-25T00:46:44.647Z,2.80
2018-03-25T00:49:15.797Z,2.88
2018-03-25T00:51:46.687Z,2.76
2018-03-25T00:54:17.730Z,2.70
2018-03-25T00:56:48.774Z,2.69
2018-03-25T00:59:19.854Z,2.72
2018-03-25T01:01:51.119Z,2.60
2018-03-25T01:04:21.756Z,2.71
2018-03-25T01:06:52.778Z,2.65
2018-03-25T01:09:23.437Z,2.69
2018-03-25T01:11:54.326Z,2.75
2018-03-25T01:14:25.063Z,2.71
2018-03-25T01:16:55.674Z,2.73
2018-03-25T01:19:27.199Z,2.75
2018-03-25T01:21:57.059Z,2.74
2018-03-25T01:24:27.733Z,2.74
2018-03-25T01:26:58.678Z,2.80
2018-03-25T01:29:29.683Z,2.81
2018-03-25T01:32:06.118Z,2.77
2018-03-25T01:34:35.699Z,2.79
2018-03-25T01:37:05.102Z,2.91
2018-03-25T01:39:34.358Z,3.05
2018-03-25T01:42:04.458Z,2.96
2018-03-25T01:44:34.778Z,3.05
2018-03-25T01:47:05.775Z,3.14
2018-03-25T01:49:36.615Z,3.15
2018-03-25T01:52:07.290Z,3.16
2018-03-25T01:54:37.778Z,3.19
2018-03-25T01:57:08.758Z,3.33
2018-03-25T01:59:39.580Z,3.32
2018-03-25T02:02:10.572Z,3.32
2018-03-25T02:04:41.521Z,3.27
2018-03-25T02:07:12.587Z,3.24
2018-03-25T02:09:44.188Z,3.31
2018-03-25T02:12:14.952Z,3.25
2018-03-25T02:14:45.631Z,3.29
2018-03-25T02:17:16.272Z,3.32
2018-03-25T02:19:46.936Z,3.28
2018-03-25T02:22:17.746Z,3.26
2018-03-25T02:24:48.675Z,3.24
2018-03-25T02:27:19.686Z,3.18
2018-03-25T02:29:50.654Z,3.17
2018-03-25T02:32:21.614Z,3.20
2018-03-25T02:34:52.794Z,3.17
2018-03-25T02:37:23.802Z,3.17
2018-03-25T02:39:54.959Z,3.19
2018-03-25T02:42:25.743Z,3.20
2018-03-25T02:44:57.507Z,3.18
2018-03-25T02:47:28.190Z,3.18
2018-03-25T02:49:58.710Z,3.18
2018-03-25T02:52:29.311Z,3.18
2018-03-25T02:54:59.707Z,3.17
2018-03-25T02:57:30.601Z,3.18
2018-03-25T03:00:01.606Z,3.20
2018-03-25T03:02:32.745Z,3.20
2018-03-25T03:05:03.667Z,3.17
2018-03-25T03:07:34.667Z,3.21
2018-03-25T03:10:05.068Z,3.17
2018-03-25T03:12:35.763Z,3.15
2018-03-25T03:15:06.759Z,3.12
2018-03-25T03:17:37.667Z,3.10
2018-03-25T03:20:08.262Z,3.16
2018-03-25T03:22:38.788Z,3.11
2018-03-25T03:25:09.727Z,3.08
2018-03-25T03:27:41.067Z,3.11
2018-03-25T03:30:11.700Z,3.02
2018-03-25T03:32:42.715Z,2.97
2018-03-25T03:35:13.915Z,2.94
2018-03-25T03:37:44.737Z,2.94
2018-03-25T03:40:15.679Z,2.86
2018-03-25T03:42:46.680Z,2.72
2018-03-25T03:45:17.657Z,2.67
2018-03-25T03:47:48.673Z,2.66
2018-03-25T03:50:19.850Z,2.67
2018-03-25T03:52:50.392Z,2.60
2018-03-25T03:55:21.022Z,2.61
2018-03-25T03:57:52.348Z,2.52
2018-03-25T04:00:23.373Z,2.48
2018-03-25T04:02:54.080Z,2.33
2018-03-25T04:05:25.248Z,2.37
2018-03-25T04:07:55.835Z,2.26
2018-03-25T04:10:26.723Z,2.06
2018-03-25T04:12:57.723Z,2.13
2018-03-25T04:15:28.475Z,2.17
2018-03-25T04:17:59.951Z,2.10
2018-03-25T04:20:30.668Z,1.97
2018-03-25T04:23:01.743Z,1.94
2018-03-25T04:25:32.297Z,1.94
2018-03-25T04:28:03.317Z,1.86
2018-03-25T04:30:33.779Z,1.90
2018-03-25T04:33:04.706Z,1.88
2018-03-25T04:35:35.674Z,1.79
2018-03-25T04:38:06.705Z,1.75
2018-03-25T04:40:37.646Z,1.77
2018-03-25T04:43:08.684Z,1.64
2018-03-25T04:45:39.650Z,1.56
2018-03-25T04:48:10.647Z,1.53
2018-03-25T04:50:41.597Z,1.58
2018-03-25T04:53:12.610Z,1.44
2018-03-25T04:55:42.919Z,1.40
2018-03-25T04:58:13.805Z,1.29
2018-03-25T05:00:44.602Z,1.27
2018-03-25T05:03:15.610Z,1.23
2018-03-25T05:05:46.548Z,1.32
2018-03-25T05:08:17.235Z,1.30
2018-03-25T05:10:47.617Z,1.30
2018-03-25T05:13:18.653Z,1.35
2018-03-25T05:15:49.262Z,1.39
2018-03-25T05:18:19.778Z,1.38
2018-03-25T05:20:50.575Z,1.41
2018-03-25T05:23:21.240Z,1.33
2018-03-25T05:25:51.743Z,1.36
2018-03-25T05:28:22.706Z,1.37
2018-03-25T05:30:53.617Z,1.24
2018-03-25T05:33:24.643Z,1.16
2018-03-25T05:35:55.751Z,1.38
2018-03-25T05:38:26.766Z,1.35
2018-03-25T05:40:57.658Z,1.32
2018-03-25T05:43:28.676Z,1.29
2018-03-25T05:45:59.615Z,1.39
2018-03-25T05:48:30.719Z,1.44
2018-03-25T05:51:01.582Z,1.48
2018-03-25T05:53:32.595Z,1.48
2018-03-25T05:56:03.580Z,1.47
2018-03-25T05:58:34.558Z,1.62
2018-03-25T06:01:05.175Z,1.62
2018-03-25T06:03:35.860Z,1.70
2018-03-25T06:06:06.284Z,1.75
2018-03-25T06:08:37.678Z,1.84
2018-03-25T06:11:08.341Z,1.87
2018-03-25T06:13:38.851Z,1.93
2018-03-25T06:16:09.713Z,1.97
2018-03-25T06:18:40.732Z,2.06
2018-03-25T06:21:11.720Z,2.14
2018-03-25T06:23:42.687Z,2.24
2018-03-25T06:26:13.248Z,2.28
2018-03-25T06:28:43.778Z,2.39
2018-03-25T06:31:15.240Z,2.45
2018-03-25T06:33:45.762Z,2.53
2018-03-25T06:36:16.732Z,2.63
2018-03-25T06:38:47.761Z,2.52
2018-03-25T06:41:18.379Z,2.83
2018-03-25T06:43:49.098Z,2.99
2018-03-25T06:46:19.706Z,3.12
2018-03-25T06:48:50.708Z,3.30
2018-03-25T06:51:21.660Z,3.39
2018-03-25T06:53:52.693Z,3.55
2018-03-25T06:56:23.890Z,3.73
2018-03-25T06:58:54.765Z,3.84
2018-03-25T07:01:25.549Z,3.93
2018-03-25T07:03:56.554Z,4.03
2018-03-25T07:06:27.512Z,4.11
2018-03-25T07:08:58.483Z,4.18
2018-03-25T07:11:29.394Z,4.26
2018-03-25T07:14:00.423Z,4.37
2018-03-25T07:16:31.382Z,4.49
2018-03-25T07:19:02.057Z,4.59
2018-03-25T07:21:32.790Z,4.67
2018-03-25T07:24:03.639Z,4.69
2018-03-25T07:26:34.595Z,4.65
2018-03-25T07:29:06.237Z,4.92
2018-03-25T07:31:37.011Z,5.02
2018-03-25T07:34:07.733Z,5.06
2018-03-25T07:36:38.667Z,5.18
2018-03-25T07:39:09.640Z,5.22
2018-03-25T07:41:40.577Z,5.33
2018-03-25T07:44:11.601Z,5.42
2018-03-25T07:46:42.532Z,5.41
2018-03-25T07:49:13.520Z,5.43
2018-03-25T07:51:44.465Z,5.51
2018-03-25T07:54:15.452Z,5.57
2018-03-25T07:56:46.427Z,5.66
2018-03-25T07:59:17.472Z,5.80
2018-03-25T08:01:47.784Z,5.84
2018-03-25T08:04:18.723Z,5.99
2018-03-25T08:06:49.708Z,6.10
2018-03-25T08:09:20.730Z,6.14
2018-03-25T08:11:51.691Z,6.15
2018-03-25T08:14:22.370Z,6.23
2018-03-25T08:16:53.011Z,6.26
2018-03-25T08:19:23.776Z,6.37
2018-03-25T08:21:54.840Z,6.42
2018-03-25T08:24:25.815Z,6.50
2018-03-25T08:26:56.340Z,6.61
2018-03-25T08:29:27.086Z,6.83
2018-03-25T08:31:57.661Z,6.94
2018-03-25T08:34:28.302Z,6.99
2018-03-25T08:36:58.995Z,7.12
2018-03-25T08:39:29.768Z,7.14
2018-03-25T08:42:02.263Z,7.26
2018-03-25T08:44:32.377Z,7.40
2018-03-25T08:47:02.020Z,7.53
2018-03-25T08:49:32.721Z,7.63
2018-03-25T08:52:03.704Z,7.69
2018-03-25T08:54:34.375Z,7.82
2018-03-25T08:57:04.992Z,7.93
2018-03-25T08:59:35.820Z,8.02
2018-03-25T09:02:06.373Z,8.18
2018-03-25T09:04:37.868Z,8.27
2018-03-25T09:07:08.467Z,8.37
2018-03-25T09:09:39.235Z,8.36
2018-03-25T09:12:09.475Z,8.41
2018-03-25T09:14:41.377Z,8.48
2018-03-25T09:17:12.021Z,8.65
2018-03-25T09:19:42.805Z,8.73
2018-03-25T09:22:13.517Z,8.75
2018-03-25T09:24:44.256Z,8.88
2018-03-25T09:27:14.758Z,9.02
2018-03-25T09:29:45.374Z,9.06
2018-03-25T09:32:16.125Z,9.15
2018-03-25T09:34:46.206Z,9.28
2018-03-25T09:37:16.734Z,9.34
2018-03-25T09:39:47.751Z,9.31
2018-03-25T09:42:18.358Z,9.32
2018-03-25T09:44:49.116Z,9.31
2018-03-25T09:47:19.665Z,9.38
2018-03-25T09:49:50.302Z,9.37
2018-03-25T09:52:21.019Z,9.52
2018-03-25T09:54:51.797Z,9.35
2018-03-25T09:57:23.444Z,9.50
2018-03-25T09:59:54.132Z,9.43
2018-03-25T10:02:27.850Z,9.44
2018-03-25T10:04:57.154Z,9.56
2018-03-25T10:07:27.028Z,9.64
2018-03-25T10:09:57.754Z,9.72
2018-03-25T10:12:28.729Z,9.71
2018-03-25T10:15:00.795Z,9.78
2018-03-25T10:17:31.304Z,9.86
2018-03-25T10:20:02.008Z,10.04
2018-03-25T10:22:32.716Z,9.94
2018-03-25T10:25:03.382Z,10.01
2018-03-25T10:27:34.012Z,10.12
2018-03-25T10:30:04.525Z,10.20
2018-03-25T10:32:35.492Z,10.23
2018-03-25T10:35:06.556Z,10.24
2018-03-25T10:37:37.534Z,10.30
2018-03-25T10:40:08.174Z,10.38
2018-03-25T10:42:38.748Z,10.47
2018-03-25T10:45:13.875Z,10.57
2018-03-25T10:47:43.078Z,10.64
2018-03-25T10:50:12.355Z,10.75
2018-03-25T10:52:42.961Z,10.86
2018-03-25T10:55:13.341Z,11.01
2018-03-25T10:57:43.844Z,11.05
2018-03-25T11:00:14.307Z,11.19
2018-03-25T11:02:44.988Z,11.34
2018-03-25T11:05:15.836Z,11.24
2018-03-25T11:07:46.699Z,11.35
2018-03-25T11:10:17.705Z,11.42
2018-03-25T11:12:48.711Z,11.40
2018-03-25T11:15:19.773Z,11.48
2018-03-25T11:17:50.756Z,11.67
2018-03-25T11:20:21.800Z,11.60
2018-03-25T11:22:52.656Z,11.66
2018-03-25T11:25:23.692Z,11.62
2018-03-25T11:27:54.669Z,11.70
2018-03-25T11:30:25.805Z,11.66
2018-03-25T11:32:56.690Z,11.79
2018-03-25T11:35:27.696Z,11.86
2018-03-25T11:37:58.697Z,11.91
2018-03-25T11:40:29.747Z,12.06
2018-03-25T11:43:00.652Z,12.19
2018-03-25T11:45:31.689Z,12.24
2018-03-25T11:48:02.618Z,12.15
2018-03-25T11:50:33.350Z,12.27
2018-03-25T11:53:03.763Z,12.48
2018-03-25T11:55:35.160Z,12.48
2018-03-25T11:58:05.773Z,12.56
2018-03-25T12:00:36.395Z,12.55
2018-03-25T12:03:07.140Z,12.62
2018-03-25T12:05:37.824Z,12.80
2018-03-25T12:08:08.389Z,12.80
2018-03-25T12:10:39.221Z,12.95
2018-03-25T12:13:09.754Z,13.05
2018-03-25T12:15:40.471Z,13.09
2018-03-25T12:18:11.415Z,13.03
2018-03-25T12:20:42.133Z,13.03
2018-03-25T12:23:12.713Z,13.14
2018-03-25T12:25:43.406Z,13.14
2018-03-25T12:28:14.033Z,13.11
2018-03-25T12:30:44.805Z,13.09
2018-03-25T12:33:16.241Z,13.16
2018-03-25T12:35:46.143Z,12.90
2018-03-25T12:38:16.747Z,12.99
2018-03-25T12:40:47.864Z,13.05
2018-03-25T12:43:18.889Z,13.34
2018-03-25T12:45:49.696Z,13.52
2018-03-25T12:48:22.052Z,13.47
2018-03-25T12:50:52.184Z,13.33
2018-03-25T12:53:22.032Z,13.35
2018-03-25T12:55:52.791Z,13.33
2018-03-25T12:58:23.736Z,13.40
2018-03-25T13:00:54.794Z,13.53
2018-03-25T13:03:25.798Z,13.46
2018-03-25T13:05:56.732Z,13.38
2018-03-25T13:08:27.683Z,13.44
2018-03-25T13:10:59.353Z,13.46
2018-03-25T13:13:29.953Z,13.54
2018-03-25T13:16:00.734Z,13.69
2018-03-25T13:18:31.962Z,13.65
2018-03-25T13:21:02.732Z,13.68
2018-03-25T13:23:33.367Z,13.62
2018-03-25T13:26:04.125Z,13.68
2018-03-25T13:28:34.733Z,13.78
2018-03-25T13:31:05.805Z,13.72
2018-03-25T13:33:36.669Z,13.76
2018-03-25T13:36:07.721Z,13.49
2018-03-25T13:38:38.329Z,13.73
2018-03-25T13:41:09.087Z,13.74
2018-03-25T13:43:39.763Z,13.80
2018-03-25T13:46:10.756Z,13.80
2018-03-25T13:48:42.155Z,13.94
2018-03-25T13:51:12.771Z,13.84
2018-03-25T13:53:43.710Z,13.64
2018-03-25T13:56:14.701Z,13.52
2018-03-25T13:58:45.666Z,13.68
2018-03-25T14:01:16.711Z,13.66
2018-03-25T14:03:47.787Z,13.65
2018-03-25T14:06:18.840Z,13.63
2018-03-25T14:08:49.376Z,13.46
2018-03-25T14:11:20.064Z,13.44
2018-03-25T14:13:50.773Z,13.26
2018-03-25T14:16:21.731Z,13.28
2018-03-25T14:18:52.749Z,13.27
2018-03-25T14:21:23.690Z,13.31
2018-03-25T14:23:54.692Z,13.38
2018-03-25T14:26:25.724Z,13.57
2018-03-25T14:28:56.722Z,13.64
2018-03-25T14:31:27.492Z,13.66
2018-03-25T14:33:58.350Z,13.31
2018-03-25T14:36:29.036Z,13.33
2018-03-25T14:38:59.753Z,13.23
2018-03-25T14:41:30.454Z,13.21
2018-03-25T14:44:01.071Z,13.30
2018-03-25T14:46:31.904Z,13.29
2018-03-25T14:49:02.684Z,13.16
2018-03-25T14:51:36.185Z,13.09
2018-03-25T14:54:04.912Z,13.11
2018-03-25T14:56:35.325Z,13.12
2018-03-25T14:59:05.913Z,13.09
2018-03-25T15:01:36.681Z,13.20
2018-03-25T15:04:07.960Z,13.23
2018-03-25T15:06:38.709Z,13.34
2018-03-25T15:09:09.791Z,13.14
2018-03-25T15:11:40.242Z,13.07
2018-03-25T15:14:10.768Z,12.62
2018-03-25T15:16:41.750Z,12.71
2018-03-25T15:19:12.772Z,12.46
2018-03-25T15:21:43.647Z,12.49
2018-03-25T15:24:14.683Z,12.54
2018-03-25T15:26:45.644Z,12.51
2018-03-25T15:29:16.682Z,12.44
2018-03-25T15:31:47.470Z,12.33
2018-03-25T15:34:18.194Z,12.18
2018-03-25T15:36:48.759Z,12.15
2018-03-25T15:39:19.706Z,12.21
2018-03-25T15:41:51.183Z,12.19
2018-03-25T15:44:21.844Z,12.18
2018-03-25T15:46:52.702Z,12.10
2018-03-25T15:49:23.718Z,12.22
2018-03-25T15:51:54.713Z,12.14
2018-03-25T15:54:25.841Z,11.98
2018-03-25T15:56:56.640Z,11.91
2018-03-25T15:59:27.663Z,11.71
2018-03-25T16:01:58.631Z,11.52
2018-03-25T16:04:30.025Z,11.62
2018-03-25T16:07:00.739Z,11.64
2018-03-25T16:09:31.785Z,11.67
2018-03-25T16:12:02.732Z,11.70
2018-03-25T16:14:33.782Z,11.64
2018-03-25T16:17:04.838Z,11.44
2018-03-25T16:19:35.685Z,11.39
2018-03-25T16:22:06.783Z,11.32
2018-03-25T16:24:38.756Z,11.32
2018-03-25T16:27:08.354Z,11.42
2018-03-25T16:29:39.110Z,11.35
2018-03-25T16:32:09.787Z,11.29
2018-03-25T16:34:40.867Z,11.30
2018-03-25T16:37:11.333Z,11.03
2018-03-25T16:39:41.152Z,11.02
2018-03-25T16:42:11.755Z,10.85
2018-03-25T16:44:42.835Z,10.84
2018-03-25T16:47:13.697Z,11.28
2018-03-25T16:49:44.808Z,11.62
2018-03-25T16:52:15.791Z,11.67
2018-03-25T16:54:48.490Z,11.65
2018-03-25T16:57:18.471Z,11.76
2018-03-25T16:59:49.198Z,11.76
2018-03-25T17:02:19.663Z,11.42
2018-03-25T17:04:50.977Z,11.20
2018-03-25T17:07:21.735Z,10.87
2018-03-25T17:09:52.750Z,10.64
2018-03-25T17:12:23.737Z,10.45
2018-03-25T17:14:54.789Z,10.36
2018-03-25T17:17:25.777Z,10.18
2018-03-25T17:19:56.843Z,10.01
2018-03-25T17:22:27.704Z,9.95
2018-03-25T17:24:58.805Z,9.85
2018-03-25T17:27:29.752Z,9.65
2018-03-25T17:30:01.416Z,9.53
2018-03-25T17:32:31.089Z,9.48
2018-03-25T17:35:01.132Z,9.43
2018-03-25T17:37:31.757Z,9.45
2018-03-25T17:40:02.823Z,9.79
2018-03-25T17:42:33.871Z,10.45
2018-03-25T17:45:04.350Z,10.91
2018-03-25T17:47:35.049Z,10.58
2018-03-25T17:50:05.922Z,10.11
2018-03-25T17:52:36.756Z,9.85
2018-03-25T17:55:07.898Z,9.70
2018-03-25T17:57:38.704Z,9.33
2018-03-25T18:00:09.837Z,9.21
2018-03-25T18:02:40.697Z,9.17
2018-03-25T18:05:11.844Z,8.95
2018-03-25T18:07:42.691Z,8.71
2018-03-25T18:10:13.866Z,8.62
2018-03-25T18:12:45.021Z,8.38
2018-03-25T18:15:15.882Z,8.31
2018-03-25T18:17:46.731Z,8.14
2018-03-25T18:20:17.728Z,8.15
2018-03-25T18:22:48.733Z,8.04
2018-03-25T18:25:20.566Z,8.04
2018-03-25T18:27:50.213Z,7.97
2018-03-25T18:30:20.839Z,7.82
2018-03-25T18:32:51.755Z,7.79
2018-03-25T18:35:22.401Z,7.65
2018-03-25T18:37:53.046Z,7.61
2018-03-25T18:40:23.907Z,7.58
2018-03-25T18:42:54.316Z,7.60
2018-03-25T18:45:24.916Z,7.40
2018-03-25T18:47:55.762Z,7.27
2018-03-25T18:50:26.819Z,7.27
2018-03-25T18:52:58.684Z,7.15
2018-03-25T18:55:28.666Z,7.21
2018-03-25T18:57:59.488Z,6.93
2018-03-25T19:00:30.350Z,6.89
2018-03-25T19:03:01.953Z,7.21
2018-03-25T19:05:32.484Z,7.39
2018-03-25T19:08:03.515Z,7.20
2018-03-25T19:10:34.450Z,7.03
2018-03-25T19:13:05.175Z,6.92
2018-03-25T19:15:35.162Z,6.78
2018-03-25T19:18:05.813Z,6.69
2018-03-25T19:20:36.882Z,6.66
2018-03-25T19:23:07.801Z,6.50
2018-03-25T19:25:38.890Z,6.46
2018-03-25T19:28:13.904Z,6.46
2018-03-25T19:30:43.253Z,6.34
2018-03-25T19:33:12.844Z,6.32
2018-03-25T19:35:42.433Z,6.25
2018-03-25T19:38:13.267Z,6.34
2018-03-25T19:40:43.833Z,6.17
2018-03-25T19:43:14.764Z,6.11
2018-03-25T19:45:45.758Z,6.06
2018-03-25T19:48:16.820Z,6.03
2018-03-25T19:50:47.820Z,6.04
2018-03-25T19:53:18.820Z,5.93
2018-03-25T19:55:49.833Z,5.88
2018-03-25T19:58:20.816Z,5.84
2018-03-25T20:00:51.391Z,5.80
2018-03-25T20:03:22.048Z,5.72
2018-03-25T20:05:52.850Z,5.66
2018-03-25T20:08:23.344Z,5.69
2018-03-25T20:10:53.976Z,5.58
2018-03-25T20:13:24.765Z,5.56
2018-03-25T20:15:55.844Z,5.56
2018-03-25T20:18:26.328Z,5.59
2018-03-25T20:20:56.455Z,5.52
2018-03-25T20:23:27.655Z,5.49
2018-03-25T20:25:58.744Z,5.50
2018-03-25T20:28:29.784Z,6.41
2018-03-25T20:31:00.658Z,7.27
2018-03-25T20:33:31.802Z,6.86
2018-03-25T20:36:02.702Z,6.58
2018-03-25T20:38:33.764Z,6.31
2018-03-25T20:41:04.664Z,6.18
2018-03-25T20:43:35.989Z,6.00
2018-03-25T20:46:06.707Z,5.97
2018-03-25T20:48:37.737Z,5.80
2018-03-25T20:51:08.343Z,5.69
2018-03-25T20:53:39.031Z,5.66
2018-03-25T20:56:09.606Z,5.53
2018-03-25T20:58:40.634Z,5.53
2018-03-25T21:01:12.087Z,5.33
2018-03-25T21:03:42.818Z,5.39
2018-03-25T21:06:13.762Z,5.26
2018-03-25T21:08:44.832Z,5.25
2018-03-25T21:11:15.644Z,5.19
2018-03-25T21:13:46.334Z,5.16
2018-03-25T21:16:17.075Z,5.30
2018-03-25T21:18:47.747Z,5.09
2018-03-25T21:21:18.694Z,5.11
2018-03-25T21:23:49.778Z,5.06
2018-03-25T21:26:20.320Z,4.98
2018-03-25T21:28:50.965Z,5.00
2018-03-25T21:31:21.927Z,4.90
2018-03-25T21:33:52.688Z,4.89
2018-03-25T21:36:23.797Z,4.83
2018-03-25T21:38:54.783Z,4.82
2018-03-25T21:41:25.596Z,4.81
2018-03-25T21:43:56.565Z,4.79
2018-03-25T21:46:27.480Z,4.76
2018-03-25T21:48:58.543Z,4.75
2018-03-25T21:51:29.522Z,4.76
2018-03-25T21:54:02.017Z,4.68
2018-03-25T21:56:31.986Z,4.72
2018-03-25T21:59:02.871Z,4.61
2018-03-25T22:01:33.747Z,4.57
2018-03-25T22:04:04.851Z,4.56
2018-03-25T22:06:35.692Z,4.56
2018-03-25T22:09:06.175Z,4.52
2018-03-25T22:11:37.691Z,4.50
2018-03-25T22:14:08.705Z,4.51
2018-03-25T22:16:39.647Z,4.50
2018-03-25T22:19:10.653Z,4.48
2018-03-25T22:21:41.304Z,4.43
2018-03-25T22:24:11.879Z,4.49
2018-03-25T22:26:42.666Z,4.39
2018-03-25T22:29:13.687Z,4.38
2018-03-25T22:31:44.648Z,4.40
2018-03-25T22:34:15.640Z,4.38
2018-03-25T22:36:46.663Z,4.36
2018-03-25T22:39:17.786Z,4.33
2018-03-25T22:41:48.800Z,4.29
2018-03-25T22:44:19.690Z,4.30
2018-03-25T22:46:50.611Z,4.31
2018-03-25T22:49:21.574Z,4.32
2018-03-25T22:51:52.517Z,4.29
2018-03-25T22:54:23.671Z,4.26
2018-03-25T22:56:54.618Z,4.27
2018-03-25T22:59:25.751Z,4.27
2018-03-25T23:01:56.915Z,4.25
2018-03-25T23:04:27.739Z,4.28
2018-03-25T23:06:58.614Z,4.24
2018-03-25T23:09:29.400Z,4.24
2018-03-25T23:12:00.333Z,4.23
2018-03-25T23:14:31.406Z,4.22
2018-03-25T23:17:04.936Z,4.21
2018-03-25T23:19:34.971Z,4.20
2018-03-25T23:22:04.239Z,4.18
2018-03-25T23:24:34.938Z,4.13
2018-03-25T23:27:05.322Z,4.07
2018-03-25T23:29:36.099Z,4.07
2018-03-25T23:32:12.034Z,4.05
2018-03-25T23:34:41.275Z,4.04
2018-03-25T23:37:10.670Z,4.04
2018-03-25T23:39:40.310Z,4.03
2018-03-25T23:42:10.892Z,3.99
2018-03-25T23:44:41.759Z,3.99
2018-03-25T23:47:12.763Z,3.98
2018-03-25T23:49:43.575Z,4.00
2018-03-25T23:52:15.004Z,4.01
2018-03-25T23:54:45.802Z,4.00
2018-03-25T23:57:16.800Z,4.06
2018-03-25T23:59:47.718Z,4.01
